Orangeburg, SC

4:05 PM EDT on July 04, 2015 (GMT -0400)
OC Tech | | Change Station
CLOSE
Current Station
Personal Weather Station
Location: Orangeburg, SC
Elevation: 292 ft
Nearby Weather Stations

Elev 292 ft 33.54 °N, 80.83 °W | Updated 50 seconds ago

Partly Cloudy
Partly Cloudy
86.8 °F
Feels Like 91 °F
N
1.0
Wind Variable Wind from SW
Gusts 16.0 mph

Today
High -- | Low -- °F
--% Chance of Precip.
Yesterday
High -- | Low -- °F
Precip. -- in
6:18 AM 8:37 PM
Waning Gibbous, 90% visible
Pressure 30.04 in
Visibility 10.0 miles
Clouds Clear
Heat Index 91 °F
Dew Point 69 °F
Humidity 56%
Rainfall 0.00 in
Snow Depth Not available.
UV 9 out of 12
Pollen 3.00 out of 12
Air Quality Not available.
Flu Activity Not available.
METAR KOGB 041953Z AUTO 23010KT 10SM CLR 31/21 A3004 RMK AO2 SLP170 T03110206

More Conditions Fewer Conditions

Pressure 30.04 in
Visibility 10.0 miles
Clouds Clear
Heat Index 91 °F
Dew Point 69 °F
Humidity 56%
Rainfall 0.00 in
Snow Depth Not available.
UV 9 out of 12
Pollen 3.00 out of 12
Air Quality Not available.
Flu Activity Not available.
METAR KOGB 041953Z AUTO 23010KT 10SM CLR 31/21 A3004 RMK AO2 SLP170 T03110206

More Conditions Fewer Conditions

10-Day Weather Forecast

×

Almanac

Astronomy

Jul. 04, 2015 Rise Set
Actual Time
Civil Twilight
Nautical Twilight
Astronomical Twilight
Moon
Length of Visible Light
Length of Day
Tomorrow will be .
, % of the Moon is Illuminated

Today's Extremes

State Highs State Lows

Community

WunderPhotos

Upload Photos

1,835,073 photos uploaded!

WunderBlogs® & News

Nearby

Air Quality

  Air Quality AQ Index Pollutant
Not available.

Snow Depth

Station Depth Elevation

Earthquake Activity

City Distance Mag. Time & Date
Minimum magnitude displayed is 2.5.

Coastal Water Temperatures

Place Temperature

Stations

Nearby Weather Stations

Station Location Temp. Windchill Dew Point Humidity Wind Precip. Elev Updated Type